createdAt,value
2018-01-06T00:00:33.866Z,996.88
2018-01-06T00:02:25.615Z,996.90
2018-01-06T00:03:25.545Z,996.94
2018-01-06T00:05:17.378Z,996.98
2018-01-06T00:06:17.311Z,996.97
2018-01-06T00:08:09.100Z,997.01
2018-01-06T00:09:08.997Z,997.02
2018-01-06T00:11:00.750Z,997.06
2018-01-06T00:12:00.694Z,997.01
2018-01-06T00:13:52.436Z,997.03
2018-01-06T00:14:52.377Z,997.07
2018-01-06T00:16:44.174Z,997.07
2018-01-06T00:17:44.046Z,997.11
2018-01-06T00:19:35.792Z,997.10
2018-01-06T00:20:35.774Z,997.14
2018-01-06T00:22:27.657Z,997.16
2018-01-06T00:23:27.606Z,997.14
2018-01-06T00:25:19.392Z,997.15
2018-01-06T00:26:19.335Z,997.18
2018-01-06T00:28:11.077Z,997.24
2018-01-06T00:29:11.074Z,997.23
2018-01-06T00:31:02.882Z,997.22
2018-01-06T00:32:02.712Z,997.15
2018-01-06T00:33:54.482Z,997.15
2018-01-06T00:34:54.394Z,997.19
2018-01-06T00:36:46.162Z,997.21
2018-01-06T00:37:46.102Z,997.19
2018-01-06T00:39:37.876Z,997.16
2018-01-06T00:40:37.747Z,997.16
2018-01-06T00:42:29.512Z,997.20
2018-01-06T00:43:29.426Z,997.26
2018-01-06T00:45:21.186Z,997.19
2018-01-06T00:46:21.103Z,997.27
2018-01-06T00:48:12.861Z,997.33
2018-01-06T00:49:12.804Z,997.40
2018-01-06T00:51:04.636Z,997.42
2018-01-06T00:52:04.572Z,997.44
2018-01-06T00:53:56.282Z,997.54
2018-01-06T00:54:56.220Z,997.52
2018-01-06T00:56:47.998Z,997.52
2018-01-06T00:57:48.026Z,997.55
2018-01-06T00:59:39.647Z,997.52
2018-01-06T01:00:39.596Z,997.55
2018-01-06T01:02:31.350Z,997.58
2018-01-06T01:03:31.297Z,997.63
2018-01-06T01:05:23.172Z,997.65
2018-01-06T01:06:23.067Z,997.60
2018-01-06T01:08:14.919Z,997.61
2018-01-06T01:09:14.811Z,997.62
2018-01-06T01:11:06.588Z,997.57
2018-01-06T01:12:06.509Z,997.58
2018-01-06T01:13:58.270Z,997.56
2018-01-06T01:14:58.213Z,997.63
2018-01-06T01:16:49.968Z,997.59
2018-01-06T01:17:49.886Z,997.54
2018-01-06T01:19:41.621Z,997.55
2018-01-06T01:20:41.562Z,997.55
2018-01-06T01:22:33.327Z,997.56
2018-01-06T01:23:33.243Z,997.52
2018-01-06T01:25:25.031Z,997.59
2018-01-06T01:26:24.954Z,997.62
2018-01-06T01:28:16.781Z,997.58
2018-01-06T01:29:16.652Z,997.62
2018-01-06T01:31:08.395Z,997.61
2018-01-06T01:32:08.330Z,997.62
2018-01-06T01:34:00.068Z,997.61
2018-01-06T01:35:00.005Z,997.66
2018-01-06T01:36:51.756Z,997.71
2018-01-06T01:37:51.688Z,997.71
2018-01-06T01:39:43.454Z,997.75
2018-01-06T01:40:43.361Z,997.79
2018-01-06T01:42:35.132Z,997.77
2018-01-06T01:43:35.049Z,997.79
2018-01-06T01:45:26.906Z,997.86
2018-01-06T01:46:26.826Z,997.85
2018-01-06T01:48:18.578Z,997.88
2018-01-06T01:49:18.513Z,997.88
2018-01-06T01:51:10.248Z,997.85
2018-01-06T01:52:10.191Z,997.84
2018-01-06T01:54:02.022Z,997.84
2018-01-06T01:55:01.948Z,997.89
2018-01-06T01:56:53.686Z,997.90
2018-01-06T01:57:53.623Z,997.89
2018-01-06T01:59:45.437Z,997.92
2018-01-06T02:00:45.346Z,997.90
2018-01-06T02:02:37.117Z,997.85
2018-01-06T02:03:37.057Z,997.88
2018-01-06T02:05:28.816Z,997.92
2018-01-06T02:06:28.764Z,997.93
2018-01-06T02:08:20.570Z,997.94
2018-01-06T02:09:20.407Z,997.97
2018-01-06T02:11:12.208Z,998.02
2018-01-06T02:12:12.134Z,998.01
2018-01-06T02:14:03.976Z,998.04
2018-01-06T02:15:03.914Z,998.07
2018-01-06T02:16:55.628Z,998.14
2018-01-06T02:17:55.562Z,998.16
2018-01-06T02:19:47.324Z,998.19
2018-01-06T02:20:47.240Z,998.17
2018-01-06T02:22:39.010Z,998.21
2018-01-06T02:23:38.927Z,998.25
2018-01-06T02:25:30.695Z,998.24
2018-01-06T02:26:30.607Z,998.27
2018-01-06T02:28:22.361Z,998.26
2018-01-06T02:29:22.298Z,998.26
2018-01-06T02:31:14.043Z,998.28
2018-01-06T02:32:13.980Z,998.25
2018-01-06T02:34:05.838Z,998.26
2018-01-06T02:35:05.654Z,998.29
2018-01-06T02:36:57.393Z,998.27
2018-01-06T02:37:57.325Z,998.26
2018-01-06T02:39:49.132Z,998.28
2018-01-06T02:40:49.008Z,998.26
2018-01-06T02:42:40.809Z,998.29
2018-01-06T02:43:40.757Z,998.29
2018-01-06T02:45:32.505Z,998.27
2018-01-06T02:46:32.433Z,998.29
2018-01-06T02:48:24.185Z,998.31
2018-01-06T02:49:24.129Z,998.33
2018-01-06T02:51:15.923Z,998.35
2018-01-06T02:52:15.801Z,998.35
2018-01-06T02:54:07.565Z,998.35
2018-01-06T02:55:07.488Z,998.38
2018-01-06T02:56:59.242Z,998.42
2018-01-06T02:57:59.166Z,998.36
2018-01-06T02:59:50.950Z,998.33
2018-01-06T03:00:50.872Z,998.31
2018-01-06T03:02:42.725Z,998.32
2018-01-06T03:03:42.568Z,998.28
2018-01-06T03:05:34.344Z,998.32
2018-01-06T03:06:34.246Z,998.32
2018-01-06T03:08:25.986Z,998.34
2018-01-06T03:09:25.954Z,998.40
2018-01-06T03:11:17.873Z,998.40
2018-01-06T03:12:17.742Z,998.41
2018-01-06T03:14:09.493Z,998.42
2018-01-06T03:15:09.397Z,998.43
2018-01-06T03:17:01.195Z,998.43
2018-01-06T03:18:01.135Z,998.46
2018-01-06T03:19:52.864Z,998.47
2018-01-06T03:20:52.797Z,998.51
2018-01-06T03:22:44.677Z,998.51
2018-01-06T03:23:44.481Z,998.56
2018-01-06T03:25:36.250Z,998.58
2018-01-06T03:26:36.246Z,998.60
2018-01-06T03:28:28.005Z,998.55
2018-01-06T03:29:27.926Z,998.62
2018-01-06T03:31:19.666Z,998.62
2018-01-06T03:32:19.638Z,998.70
2018-01-06T03:34:11.355Z,998.74
2018-01-06T03:35:11.295Z,998.76
2018-01-06T03:37:03.100Z,998.82
2018-01-06T03:38:03.005Z,998.78
2018-01-06T03:39:54.766Z,998.87
2018-01-06T03:40:54.680Z,998.88
2018-01-06T03:42:46.519Z,998.90
2018-01-06T03:43:46.390Z,998.91
2018-01-06T03:45:38.133Z,998.92
2018-01-06T03:46:38.085Z,998.89
2018-01-06T03:48:29.936Z,998.91
2018-01-06T03:49:29.832Z,998.88
2018-01-06T03:51:21.609Z,998.93
2018-01-06T03:52:21.516Z,998.91
2018-01-06T03:54:13.287Z,999.01
2018-01-06T03:55:13.244Z,998.94
2018-01-06T03:57:05.026Z,998.95
2018-01-06T03:58:04.960Z,998.92
2018-01-06T03:59:56.732Z,998.97
2018-01-06T04:00:56.650Z,998.94
2018-01-06T04:02:48.409Z,999.00
2018-01-06T04:03:48.355Z,998.98
2018-01-06T04:05:40.172Z,998.96
2018-01-06T04:06:40.104Z,998.99
2018-01-06T04:08:31.883Z,999.02
2018-01-06T04:09:31.743Z,999.05
2018-01-06T04:11:23.525Z,999.08
2018-01-06T04:12:23.420Z,999.09
2018-01-06T04:14:15.220Z,999.08
2018-01-06T04:15:15.151Z,999.10
2018-01-06T04:17:07.011Z,999.01
2018-01-06T04:18:06.913Z,999.04
2018-01-06T04:19:58.689Z,999.01
2018-01-06T04:20:58.624Z,999.02
2018-01-06T04:22:50.364Z,998.97
2018-01-06T04:23:50.301Z,998.99
2018-01-06T04:25:42.105Z,998.96
2018-01-06T04:26:41.964Z,998.97
2018-01-06T04:28:33.723Z,999.02
2018-01-06T04:29:33.660Z,999.05
2018-01-06T04:31:25.456Z,999.06
2018-01-06T04:32:25.393Z,999.13
2018-01-06T04:34:17.131Z,999.08
2018-01-06T04:35:17.070Z,999.13
2018-01-06T04:37:08.896Z,999.14
2018-01-06T04:38:08.839Z,999.16
2018-01-06T04:40:00.675Z,999.18
2018-01-06T04:41:00.552Z,999.13
2018-01-06T04:42:52.290Z,999.17
2018-01-06T04:43:52.226Z,999.13
2018-01-06T04:45:43.972Z,999.15
2018-01-06T04:46:43.906Z,999.15
2018-01-06T04:48:35.644Z,999.21
2018-01-06T04:49:35.578Z,999.26
2018-01-06T04:51:27.337Z,999.28
2018-01-06T04:52:27.257Z,999.27
2018-01-06T04:54:19.028Z,999.25
2018-01-06T04:55:18.941Z,999.25
2018-01-06T04:57:10.693Z,999.25
2018-01-06T04:58:10.648Z,999.26
2018-01-06T05:00:02.405Z,999.29
2018-01-06T05:01:02.346Z,999.27
2018-01-06T05:02:54.150Z,999.25
2018-01-06T05:03:54.068Z,999.31
2018-01-06T05:05:45.960Z,999.27
2018-01-06T05:06:45.800Z,999.31
2018-01-06T05:08:37.691Z,999.31
2018-01-06T05:09:37.510Z,999.36
2018-01-06T05:11:29.290Z,999.41
2018-01-06T05:12:29.210Z,999.40
2018-01-06T05:14:20.977Z,999.52
2018-01-06T05:15:20.911Z,999.53
2018-01-06T05:17:12.696Z,999.55
2018-01-06T05:18:12.614Z,999.56
2018-01-06T05:20:04.401Z,999.54
2018-01-06T05:21:04.305Z,999.55
2018-01-06T05:22:56.075Z,999.57
2018-01-06T05:23:55.982Z,999.61
2018-01-06T05:25:47.741Z,999.64
2018-01-06T05:26:47.752Z,999.66
2018-01-06T05:28:39.481Z,999.66
2018-01-06T05:29:39.388Z,999.65
2018-01-06T05:31:31.262Z,999.72
2018-01-06T05:32:31.122Z,999.76
2018-01-06T05:34:22.918Z,999.78
2018-01-06T05:35:22.842Z,999.82
2018-01-06T05:37:14.589Z,999.85
2018-01-06T05:38:14.520Z,999.87
2018-01-06T05:40:06.259Z,999.97
2018-01-06T05:41:06.194Z,999.96
2018-01-06T05:42:57.946Z,1000.01
2018-01-06T05:43:57.874Z,1000.04
2018-01-06T05:45:49.716Z,1000.06
2018-01-06T05:46:49.628Z,1000.05
2018-01-06T05:48:42.050Z,1000.08
2018-01-06T05:49:41.328Z,1000.07
2018-01-06T05:51:33.188Z,1000.11
2018-01-06T05:52:33.036Z,1000.15
2018-01-06T05:54:24.792Z,1000.12
2018-01-06T05:55:24.772Z,1000.15
2018-01-06T05:57:16.474Z,1000.13
2018-01-06T05:58:16.431Z,1000.16
2018-01-06T06:00:08.181Z,1000.21
2018-01-06T06:01:08.093Z,1000.16
2018-01-06T06:02:59.916Z,1000.19
2018-01-06T06:03:59.829Z,1000.20
2018-01-06T06:05:51.622Z,1000.18
2018-01-06T06:06:51.562Z,1000.18
2018-01-06T06:08:43.330Z,1000.15
2018-01-06T06:09:43.231Z,1000.18
2018-01-06T06:11:35.072Z,1000.21
2018-01-06T06:12:35.025Z,1000.16
2018-01-06T06:14:26.831Z,1000.20
2018-01-06T06:15:26.731Z,1000.19
2018-01-06T06:17:18.496Z,1000.24
2018-01-06T06:18:18.400Z,1000.23
2018-01-06T06:20:10.185Z,1000.24
2018-01-06T06:21:10.193Z,1000.24
2018-01-06T06:23:02.041Z,1000.30
2018-01-06T06:24:01.978Z,1000.32
2018-01-06T06:25:53.755Z,1000.37
2018-01-06T06:26:53.661Z,1000.39
2018-01-06T06:28:45.448Z,1000.36
2018-01-06T06:29:45.340Z,1000.39
2018-01-06T06:31:37.171Z,1000.38
2018-01-06T06:32:37.046Z,1000.42
2018-01-06T06:34:28.820Z,1000.42
2018-01-06T06:35:28.707Z,1000.43
2018-01-06T06:37:20.542Z,1000.46
2018-01-06T06:38:20.468Z,1000.49
2018-01-06T06:40:12.258Z,1000.48
2018-01-06T06:41:12.259Z,1000.52
2018-01-06T06:43:03.923Z,1000.55
2018-01-06T06:44:03.851Z,1000.51
2018-01-06T06:45:55.658Z,1000.51
2018-01-06T06:46:55.547Z,1000.56
2018-01-06T06:48:47.484Z,1000.54
2018-01-06T06:49:47.369Z,1000.56
2018-01-06T06:51:39.110Z,1000.56
2018-01-06T06:52:39.075Z,1000.65
2018-01-06T06:54:30.789Z,1000.68
2018-01-06T06:55:30.694Z,1000.71
2018-01-06T06:57:22.463Z,1000.75
2018-01-06T06:58:22.480Z,1000.72
2018-01-06T07:00:14.153Z,1000.75
2018-01-06T07:01:14.084Z,1000.70
2018-01-06T07:03:05.952Z,1000.76
2018-01-06T07:04:05.839Z,1000.75
2018-01-06T07:05:57.664Z,1000.82
2018-01-06T07:06:57.581Z,1000.85
2018-01-06T07:08:49.336Z,1000.87
2018-01-06T07:09:49.284Z,1000.89
2018-01-06T07:11:41.088Z,1000.90
2018-01-06T07:12:40.952Z,1000.90
2018-01-06T07:14:32.788Z,1000.96
2018-01-06T07:15:32.667Z,1000.92
2018-01-06T07:17:24.519Z,1000.96
2018-01-06T07:18:24.448Z,1000.91
2018-01-06T07:20:16.224Z,1000.97
2018-01-06T07:21:16.107Z,1001.02
2018-01-06T07:23:07.996Z,1001.02
2018-01-06T07:24:07.909Z,1001.09
2018-01-06T07:25:59.716Z,1001.15
2018-01-06T07:26:59.646Z,1001.16
2018-01-06T07:28:51.506Z,1001.17
2018-01-06T07:29:51.375Z,1001.22
2018-01-06T07:31:43.180Z,1001.25
2018-01-06T07:32:43.111Z,1001.22
2018-01-06T07:34:35.065Z,1001.26
2018-01-06T07:35:34.950Z,1001.31
2018-01-06T07:37:26.907Z,1001.33
2018-01-06T07:38:26.657Z,1001.36
2018-01-06T07:40:18.581Z,1001.41
2018-01-06T07:41:18.579Z,1001.41
2018-01-06T07:43:10.376Z,1001.43
2018-01-06T07:44:10.379Z,1001.53
2018-01-06T07:46:02.012Z,1001.52
2018-01-06T07:47:01.932Z,1001.52
2018-01-06T07:48:53.856Z,1001.57
2018-01-06T07:49:53.755Z,1001.67
2018-01-06T07:51:45.923Z,1001.76
2018-01-06T07:52:45.860Z,1001.77
2018-01-06T07:54:37.590Z,1001.83
2018-01-06T07:55:37.516Z,1001.90
2018-01-06T07:57:29.347Z,1001.95
2018-01-06T07:58:29.310Z,1001.95
2018-01-06T08:00:21.068Z,1001.95
2018-01-06T08:01:20.974Z,1001.97
2018-01-06T08:03:12.765Z,1001.97
2018-01-06T08:04:12.690Z,1002.03
2018-01-06T08:06:04.453Z,1002.04
2018-01-06T08:07:04.376Z,1002.07
2018-01-06T08:08:56.231Z,1001.98
2018-01-06T08:09:56.117Z,1001.93
2018-01-06T08:11:47.887Z,1001.95
2018-01-06T08:12:47.781Z,1001.88
2018-01-06T08:14:39.658Z,1001.83
2018-01-06T08:15:39.463Z,1001.85
2018-01-06T08:17:31.257Z,1001.87
2018-01-06T08:18:31.238Z,1001.94
2018-01-06T08:20:23.135Z,1001.99
2018-01-06T08:21:23.060Z,1002.01
2018-01-06T08:23:15.010Z,1002.02
2018-01-06T08:24:15.224Z,1002.07
2018-01-06T08:26:06.666Z,1002.07
2018-01-06T08:27:07.165Z,1002.09
2018-01-06T08:28:59.985Z,1002.15
2018-01-06T08:29:58.550Z,1002.13
2018-01-06T08:31:50.496Z,1002.10
2018-01-06T08:32:50.436Z,1002.13
2018-01-06T08:34:42.418Z,1002.17
2018-01-06T08:35:42.582Z,1002.17
2018-01-06T08:37:34.698Z,1002.20
2018-01-06T08:38:34.217Z,1002.17
2018-01-06T08:40:25.729Z,1002.20
2018-01-06T08:41:25.710Z,1002.24
2018-01-06T08:43:17.591Z,1002.27
2018-01-06T08:44:17.713Z,1002.23
2018-01-06T08:46:09.280Z,1002.33
2018-01-06T08:47:09.209Z,1002.38
2018-01-06T08:49:01.252Z,1002.35
2018-01-06T08:50:01.069Z,1002.41
2018-01-06T08:51:53.121Z,1002.38
2018-01-06T08:52:52.941Z,1002.40
2018-01-06T08:54:44.593Z,1002.30
2018-01-06T08:55:44.594Z,1002.29
2018-01-06T08:57:36.386Z,1002.38
2018-01-06T08:58:36.658Z,1002.38
2018-01-06T09:00:28.332Z,1002.42
2018-01-06T09:01:28.228Z,1002.42
2018-01-06T09:03:20.072Z,1002.48
2018-01-06T09:04:19.939Z,1002.50
2018-01-06T09:06:11.708Z,1002.44
2018-01-06T09:07:11.683Z,1002.52
2018-01-06T09:09:04.139Z,1002.53
2018-01-06T09:10:03.396Z,1002.57
2018-01-06T09:11:55.860Z,1002.62
2018-01-06T09:12:55.450Z,1002.65
2018-01-06T09:14:47.804Z,1002.62
2018-01-06T09:15:47.886Z,1002.65
2018-01-06T09:17:39.777Z,1002.65
2018-01-06T09:18:39.130Z,1002.61
2018-01-06T09:20:30.978Z,1002.66
2018-01-06T09:21:30.985Z,1002.68
2018-01-06T09:23:22.904Z,1002.73
2018-01-06T09:24:22.894Z,1002.75
2018-01-06T09:26:14.966Z,1002.78
2018-01-06T09:27:14.821Z,1002.78
2018-01-06T09:29:06.837Z,1002.78
2018-01-06T09:30:06.568Z,1002.84
2018-01-06T09:31:58.326Z,1002.82
2018-01-06T09:32:58.256Z,1002.80
2018-01-06T09:34:50.070Z,1002.80
2018-01-06T09:35:50.069Z,1002.85
2018-01-06T09:37:41.968Z,1002.87
2018-01-06T09:38:41.837Z,1002.88
2018-01-06T09:40:33.646Z,1002.94
2018-01-06T09:41:33.510Z,1002.97
2018-01-06T09:43:25.708Z,1002.97
2018-01-06T09:44:25.590Z,1002.94
2018-01-06T09:46:18.098Z,1002.95
2018-01-06T09:47:17.766Z,1002.99
2018-01-06T09:49:09.559Z,1002.98
2018-01-06T09:50:09.450Z,1002.95
2018-01-06T09:52:01.205Z,1003.00
2018-01-06T09:53:01.193Z,1003.01
2018-01-06T09:54:53.329Z,1003.02
2018-01-06T09:55:53.138Z,1003.06
2018-01-06T09:57:46.101Z,1003.03
2018-01-06T09:58:46.661Z,1003.07
2018-01-06T10:00:38.594Z,1003.09
2018-01-06T10:01:37.928Z,1003.08
2018-01-06T10:03:29.580Z,1003.13
2018-01-06T10:04:29.502Z,1003.16
2018-01-06T10:06:21.519Z,1003.19
2018-01-06T10:07:21.318Z,1003.13
2018-01-06T10:09:13.476Z,1003.14
2018-01-06T10:10:13.101Z,1003.09
2018-01-06T10:12:05.617Z,1003.16
2018-01-06T10:13:04.752Z,1003.18
2018-01-06T10:14:56.664Z,1003.25
2018-01-06T10:15:56.918Z,1003.23
2018-01-06T10:17:48.648Z,1003.25
2018-01-06T10:18:48.539Z,1003.25
2018-01-06T10:20:41.416Z,1003.24
2018-01-06T10:21:40.787Z,1003.24
2018-01-06T10:23:32.266Z,1003.19
2018-01-06T10:24:32.034Z,1003.18
2018-01-06T10:26:24.592Z,1003.18
2018-01-06T10:27:23.848Z,1003.23
2018-01-06T10:29:16.396Z,1003.17
2018-01-06T10:30:16.650Z,1003.21
2018-01-06T10:32:07.776Z,1003.20
2018-01-06T10:33:07.719Z,1003.23
2018-01-06T10:34:59.821Z,1003.24
2018-01-06T10:35:59.538Z,1003.28
2018-01-06T10:37:51.574Z,1003.26
2018-01-06T10:38:51.274Z,1003.23
2018-01-06T10:40:43.499Z,1003.28
2018-01-06T10:41:43.118Z,1003.30
2018-01-06T10:43:35.342Z,1003.26
2018-01-06T10:44:34.986Z,1003.24
2018-01-06T10:46:26.953Z,1003.19
2018-01-06T10:47:26.747Z,1003.19
2018-01-06T10:49:18.844Z,1003.14
2018-01-06T10:50:18.667Z,1003.11
2018-01-06T10:52:10.703Z,1003.11
2018-01-06T10:53:10.581Z,1003.09
2018-01-06T10:55:02.241Z,1003.16
2018-01-06T10:56:02.439Z,1003.15
2018-01-06T10:57:54.644Z,1003.18
2018-01-06T10:58:54.016Z,1003.21
2018-01-06T11:00:46.080Z,1003.19
2018-01-06T11:01:45.959Z,1003.24
2018-01-06T11:03:37.777Z,1003.25
2018-01-06T11:04:37.620Z,1003.25
2018-01-06T11:06:29.798Z,1003.25
2018-01-06T11:07:29.388Z,1003.28
2018-01-06T11:09:21.364Z,1003.30
2018-01-06T11:10:21.556Z,1003.32
2018-01-06T11:12:13.034Z,1003.39
2018-01-06T11:13:13.126Z,1003.40
2018-01-06T11:15:04.840Z,1003.45
2018-01-06T11:16:04.937Z,1003.48
2018-01-06T11:17:56.679Z,1003.56
2018-01-06T11:18:56.631Z,1003.50
2018-01-06T11:20:48.518Z,1003.46
2018-01-06T11:21:48.300Z,1003.48
2018-01-06T11:23:40.347Z,1003.55
2018-01-06T11:24:40.149Z,1003.57
2018-01-06T11:26:32.735Z,1003.59
2018-01-06T11:27:31.817Z,1003.59
2018-01-06T11:29:23.957Z,1003.62
2018-01-06T11:30:23.757Z,1003.61
2018-01-06T11:32:16.240Z,1003.66
2018-01-06T11:33:16.066Z,1003.59
2018-01-06T11:35:08.213Z,1003.70
2018-01-06T11:36:08.472Z,1003.71
2018-01-06T11:38:00.325Z,1003.76
2018-01-06T11:39:00.570Z,1003.81
2018-01-06T11:40:52.305Z,1003.82
2018-01-06T11:41:51.762Z,1003.85
2018-01-06T11:43:43.754Z,1003.88
2018-01-06T11:44:43.469Z,1003.90
2018-01-06T11:46:35.594Z,1003.88
2018-01-06T11:47:35.386Z,1003.77
2018-01-06T11:49:27.505Z,1003.82
2018-01-06T11:50:27.193Z,1003.76
2018-01-06T11:52:19.044Z,1003.79
2018-01-06T11:53:18.991Z,1003.81
2018-01-06T11:55:10.911Z,1003.79
2018-01-06T11:56:10.805Z,1003.85
2018-01-06T11:58:02.835Z,1003.82
2018-01-06T11:59:02.595Z,1003.79
2018-01-06T12:00:54.550Z,1003.73
2018-01-06T12:01:54.526Z,1003.71
2018-01-06T12:03:46.810Z,1003.68
2018-01-06T12:04:46.756Z,1003.76
2018-01-06T12:06:38.595Z,1003.67
2018-01-06T12:07:38.454Z,1003.75
2018-01-06T12:09:30.445Z,1003.76
2018-01-06T12:10:30.485Z,1003.79
2018-01-06T12:12:22.372Z,1003.78
2018-01-06T12:13:22.278Z,1003.80
2018-01-06T12:15:14.405Z,1003.84
2018-01-06T12:16:14.301Z,1003.84
2018-01-06T12:18:06.248Z,1003.89
2018-01-06T12:19:06.284Z,1003.95
2018-01-06T12:20:58.050Z,1003.98
2018-01-06T12:21:58.080Z,1004.01
2018-01-06T12:23:50.058Z,1004.05
2018-01-06T12:24:50.074Z,1004.00
2018-01-06T12:26:41.701Z,1004.06
2018-01-06T12:27:41.648Z,1003.96
2018-01-06T12:29:33.635Z,1004.04
2018-01-06T12:30:33.430Z,1004.05
2018-01-06T12:32:25.356Z,1004.02
2018-01-06T12:33:25.230Z,1004.07
2018-01-06T12:35:17.243Z,1004.09
2018-01-06T12:36:17.343Z,1004.08
2018-01-06T12:38:08.875Z,1004.05
2018-01-06T12:39:08.757Z,1004.09
2018-01-06T12:41:00.615Z,1004.16
2018-01-06T12:42:00.536Z,1004.18
2018-01-06T12:43:52.351Z,1004.16
2018-01-06T12:44:52.295Z,1004.20
2018-01-06T12:46:44.203Z,1004.24
2018-01-06T12:47:44.074Z,1004.26
2018-01-06T12:49:35.934Z,1004.25
2018-01-06T12:50:35.863Z,1004.27
2018-01-06T12:52:27.827Z,1004.25
2018-01-06T12:53:27.719Z,1004.24
2018-01-06T12:55:19.668Z,1004.29
2018-01-06T12:56:19.630Z,1004.28
2018-01-06T12:58:11.360Z,1004.29
2018-01-06T12:59:11.428Z,1004.23
2018-01-06T13:01:03.023Z,1004.33
2018-01-06T13:02:03.065Z,1004.29
2018-01-06T13:03:54.939Z,1004.34
2018-01-06T13:04:54.692Z,1004.30
2018-01-06T13:06:46.486Z,1004.29
2018-01-06T13:07:46.397Z,1004.29
2018-01-06T13:09:38.298Z,1004.40
2018-01-06T13:10:38.150Z,1004.43
2018-01-06T13:12:30.117Z,1004.44
2018-01-06T13:13:29.912Z,1004.52
2018-01-06T13:15:21.824Z,1004.46
2018-01-06T13:16:21.684Z,1004.46
2018-01-06T13:18:13.640Z,1004.53
2018-01-06T13:19:13.636Z,1004.56
2018-01-06T13:21:05.506Z,1004.60
2018-01-06T13:22:05.323Z,1004.62
2018-01-06T13:23:57.109Z,1004.64
2018-01-06T13:24:57.015Z,1004.72
2018-01-06T13:26:49.160Z,1004.63
2018-01-06T13:27:48.811Z,1004.68
2018-01-06T13:29:40.648Z,1004.63
2018-01-06T13:30:40.644Z,1004.62
2018-01-06T13:32:32.505Z,1004.65
2018-01-06T13:33:32.416Z,1004.70
2018-01-06T13:35:24.406Z,1004.70
2018-01-06T13:36:24.174Z,1004.77
2018-01-06T13:38:16.033Z,1004.71
2018-01-06T13:39:15.953Z,1004.70
2018-01-06T13:41:07.713Z,1004.74
2018-01-06T13:42:07.754Z,1004.76
2018-01-06T13:43:59.553Z,1004.82
2018-01-06T13:44:59.488Z,1004.76
2018-01-06T13:46:51.528Z,1004.82
2018-01-06T13:47:51.328Z,1004.82
2018-01-06T13:49:43.251Z,1004.85
2018-01-06T13:50:43.004Z,1004.83
2018-01-06T13:52:34.895Z,1004.84
2018-01-06T13:53:34.933Z,1004.86
2018-01-06T13:55:26.603Z,1004.93
2018-01-06T13:56:26.483Z,1004.89
2018-01-06T13:58:18.326Z,1004.93
2018-01-06T13:59:18.271Z,1004.96
2018-01-06T14:01:10.178Z,1004.96
2018-01-06T14:02:10.003Z,1005.00
2018-01-06T14:04:01.815Z,1005.00
2018-01-06T14:05:01.933Z,1004.95
2018-01-06T14:06:53.508Z,1004.98
2018-01-06T14:07:53.483Z,1004.99
2018-01-06T14:09:45.268Z,1005.05
2018-01-06T14:10:45.140Z,1004.98
2018-01-06T14:12:37.083Z,1005.02
2018-01-06T14:13:36.952Z,1005.02
2018-01-06T14:15:28.758Z,1005.08
2018-01-06T14:16:28.712Z,1005.05
2018-01-06T14:18:20.456Z,1005.12
2018-01-06T14:19:20.406Z,1005.19
2018-01-06T14:21:12.372Z,1005.14
2018-01-06T14:22:12.324Z,1005.16
2018-01-06T14:24:03.982Z,1005.17
2018-01-06T14:25:04.208Z,1005.18
2018-01-06T14:26:56.139Z,1005.24
2018-01-06T14:27:55.787Z,1005.22
2018-01-06T14:29:47.646Z,1005.16
2018-01-06T14:30:47.463Z,1005.18
2018-01-06T14:32:39.266Z,1005.22
2018-01-06T14:33:39.198Z,1005.23
2018-01-06T14:35:30.999Z,1005.32
2018-01-06T14:36:30.902Z,1005.30
2018-01-06T14:38:23.290Z,1005.35
2018-01-06T14:39:23.283Z,1005.35
2018-01-06T14:41:15.417Z,1005.39
2018-01-06T14:42:14.896Z,1005.39
2018-01-06T14:44:06.760Z,1005.51
2018-01-06T14:45:06.615Z,1005.56
2018-01-06T14:46:58.437Z,1005.54
2018-01-06T14:47:58.286Z,1005.53
2018-01-06T14:49:50.096Z,1005.52
2018-01-06T14:50:50.053Z,1005.53
2018-01-06T14:52:41.873Z,1005.54
2018-01-06T14:53:41.736Z,1005.50
2018-01-06T14:55:33.589Z,1005.58
2018-01-06T14:56:33.607Z,1005.58
2018-01-06T14:58:25.274Z,1005.57
2018-01-06T14:59:25.190Z,1005.62
2018-01-06T15:01:17.009Z,1005.58
2018-01-06T15:02:16.953Z,1005.56
2018-01-06T15:04:08.809Z,1005.55
2018-01-06T15:05:08.738Z,1005.65
2018-01-06T15:07:00.894Z,1005.65
2018-01-06T15:08:00.759Z,1005.66
2018-01-06T15:09:52.528Z,1005.62
2018-01-06T15:10:52.482Z,1005.60
2018-01-06T15:12:44.495Z,1005.50
2018-01-06T15:13:44.376Z,1005.52
2018-01-06T15:15:36.214Z,1005.53
2018-01-06T15:16:36.144Z,1005.50
2018-01-06T15:18:27.915Z,1005.57
2018-01-06T15:19:27.830Z,1005.57
2018-01-06T15:21:19.624Z,1005.61
2018-01-06T15:22:19.560Z,1005.61
2018-01-06T15:24:11.454Z,1005.65
2018-01-06T15:25:11.300Z,1005.62
2018-01-06T15:27:03.028Z,1005.57
2018-01-06T15:28:03.039Z,1005.58
2018-01-06T15:29:54.767Z,1005.60
2018-01-06T15:30:54.698Z,1005.62
2018-01-06T15:32:46.477Z,1005.61
2018-01-06T15:33:46.401Z,1005.55
2018-01-06T15:35:38.199Z,1005.63
2018-01-06T15:36:38.105Z,1005.64
2018-01-06T15:38:29.898Z,1005.64
2018-01-06T15:39:29.841Z,1005.66
2018-01-06T15:41:21.617Z,1005.69
2018-01-06T15:42:21.531Z,1005.67
2018-01-06T15:44:13.312Z,1005.73
2018-01-06T15:45:13.244Z,1005.73
2018-01-06T15:47:04.997Z,1005.81
2018-01-06T15:48:04.922Z,1005.82
2018-01-06T15:49:56.732Z,1005.83
2018-01-06T15:50:56.609Z,1005.86
2018-01-06T15:52:48.469Z,1005.93
2018-01-06T15:53:49.110Z,1005.92
2018-01-06T15:55:40.179Z,1005.96
2018-01-06T15:56:40.090Z,1005.99
2018-01-06T15:58:31.855Z,1005.98
2018-01-06T15:59:31.793Z,1005.98
2018-01-06T16:01:23.566Z,1006.08
2018-01-06T16:02:23.477Z,1006.14
2018-01-06T16:04:15.238Z,1006.22
2018-01-06T16:05:15.179Z,1006.22
2018-01-06T16:07:07.017Z,1006.32
2018-01-06T16:08:06.953Z,1006.35
2018-01-06T16:09:58.749Z,1006.36
2018-01-06T16:10:58.670Z,1006.41
2018-01-06T16:12:50.423Z,1006.40
2018-01-06T16:13:50.330Z,1006.46
2018-01-06T16:15:42.226Z,1006.41
2018-01-06T16:16:42.069Z,1006.49
2018-01-06T16:18:33.797Z,1006.42
2018-01-06T16:19:33.728Z,1006.44
2018-01-06T16:21:25.544Z,1006.46
2018-01-06T16:22:25.443Z,1006.42
2018-01-06T16:24:17.216Z,1006.50
2018-01-06T16:25:17.151Z,1006.55
2018-01-06T16:27:08.923Z,1006.60
2018-01-06T16:28:08.860Z,1006.58
2018-01-06T16:30:00.615Z,1006.70
2018-01-06T16:31:00.560Z,1006.72
2018-01-06T16:32:52.298Z,1006.72
2018-01-06T16:33:52.216Z,1006.73
2018-01-06T16:35:43.973Z,1006.73
2018-01-06T16:36:43.908Z,1006.73
2018-01-06T16:38:35.702Z,1006.77
2018-01-06T16:39:35.661Z,1006.82
2018-01-06T16:41:27.533Z,1006.81
2018-01-06T16:42:27.364Z,1006.83
2018-01-06T16:44:19.249Z,1006.87
2018-01-06T16:45:19.166Z,1006.92
2018-01-06T16:47:10.837Z,1006.92
2018-01-06T16:48:10.772Z,1006.94
2018-01-06T16:50:02.875Z,1006.97
2018-01-06T16:51:02.440Z,1007.00
2018-01-06T16:52:54.233Z,1006.98
2018-01-06T16:53:54.162Z,1006.95
2018-01-06T16:55:45.963Z,1006.96
2018-01-06T16:56:45.864Z,1006.98
2018-01-06T16:58:37.672Z,1007.02
2018-01-06T16:59:37.574Z,1007.03
2018-01-06T17:01:29.440Z,1007.07
2018-01-06T17:02:29.383Z,1007.07
2018-01-06T17:04:21.301Z,1007.05
2018-01-06T17:05:21.612Z,1007.11
2018-01-06T17:07:55.670Z,1007.13
2018-01-06T17:08:55.591Z,1007.15
2018-01-06T17:10:47.368Z,1007.22
2018-01-06T17:11:47.280Z,1007.22
2018-01-06T17:13:39.053Z,1007.21
2018-01-06T17:14:39.063Z,1007.18
2018-01-06T17:16:30.824Z,1007.24
2018-01-06T17:17:30.727Z,1007.28
2018-01-06T17:19:22.448Z,1007.35
2018-01-06T17:20:22.362Z,1007.36
2018-01-06T17:22:14.201Z,1007.41
2018-01-06T17:23:14.108Z,1007.44
2018-01-06T17:25:05.958Z,1007.49
2018-01-06T17:26:05.857Z,1007.51
2018-01-06T17:27:57.608Z,1007.60
2018-01-06T17:28:57.544Z,1007.62
2018-01-06T17:30:49.317Z,1007.63